Time,TemperatureF,DewpointF,PressureIn,WindDirection,WindDirectionDegrees,WindSpeedMPH,WindSpeedGustMPH,Humidity,HourlyPrecipIn,Conditions,Clouds,dailyrainin,SoftwareType,DateUTC
2013-01-03 00:03:00,-10.0,-15.0,-100.00,WSW,240,1.0,2.0,78,0.00,,,-99.99,,2013-01-03 05:03:00,
2013-01-03 00:12:00,-10.0,-15.0,-100.00,WSW,240,1.0,2.0,78,0.00,,,-99.99,,2013-01-03 05:12:00,
2013-01-03 00:23:00,-11.0,-16.0,-100.00,South,190,0.0,1.0,77,0.00,,,-99.99,,2013-01-03 05:23:00,
2013-01-03 00:33:00,-12.0,-17.0,-100.00,SW,235,1.0,1.0,77,0.00,,,-99.99,,2013-01-03 05:33:00,
2013-01-03 00:42:00,-12.0,-17.0,-100.00,SW,235,0.0,1.0,77,0.00,,,-99.99,,2013-01-03 05:42:00,
2013-01-03 00:53:00,-12.0,-17.0,-100.00,East,100,0.0,1.0,77,0.00,,,-99.99,,2013-01-03 05:53:00,
2013-01-03 01:02:00,-12.0,-17.0,-100.00,ESE,120,1.0,2.0,78,0.00,,,-99.99,,2013-01-03 06:02:00,
2013-01-03 01:12:00,-11.0,-16.0,-100.00,NNW,335,1.0,3.0,79,0.00,,,-99.99,,2013-01-03 06:12:00,
2013-01-03 01:22:00,-12.0,-17.0,-100.00,West,265,1.0,1.0,77,0.00,,,-99.99,,2013-01-03 06:22:00,
2013-01-03 01:33:00,-13.0,-18.0,-100.00,WNW,295,1.0,2.0,77,0.00,,,-99.99,,2013-01-03 06:33:00,
2013-01-03 01:42:00,-12.0,-18.0,-100.00,North,0,0.0,2.0,77,0.00,,,-99.99,,2013-01-03 06:42:00,
2013-01-03 01:52:00,-12.0,-18.0,-100.00,South,180,0.0,1.0,77,0.00,,,-99.99,,2013-01-03 06:52:00,
2013-01-03 02:02:00,-13.0,-18.0,-100.00,West,270,1.0,1.0,76,0.00,,,-99.99,,2013-01-03 07:02:00,
2013-01-03 02:12:00,-13.0,-18.0,-100.00,NE,55,1.0,1.0,76,0.00,,,-99.99,,2013-01-03 07:12:00,
2013-01-03 02:22:00,-14.0,-19.0,-100.00,West,275,1.0,2.0,76,0.00,,,-99.99,,2013-01-03 07:22:00,
2013-01-03 02:33:00,-14.0,-19.0,-100.00,SW,235,1.0,1.0,76,0.00,,,-99.99,,2013-01-03 07:33:00,
2013-01-03 02:42:00,-14.0,-19.0,-100.00,North,5,0.0,1.0,75,0.00,,,-99.99,,2013-01-03 07:42:00,
2013-01-03 02:52:00,-14.0,-19.0,-100.00,West,275,1.0,1.0,75,0.00,,,-99.99,,2013-01-03 07:52:00,
2013-01-03 03:02:00,-14.0,-19.0,-100.00,NNE,20,1.0,1.0,76,0.00,,,-99.99,,2013-01-03 08:02:00,
2013-01-03 03:12:00,-14.0,-19.0,-100.00,NW,325,2.0,2.0,76,0.00,,,-99.99,,2013-01-03 08:12:00,
2013-01-03 03:22:00,-14.0,-20.0,-100.00,NW,325,1.0,2.0,76,0.00,,,-99.99,,2013-01-03 08:22:00,
2013-01-03 03:33:00,-15.0,-20.0,-100.00,NE,45,0.0,1.0,76,0.00,,,-99.99,,2013-01-03 08:33:00,
2013-01-03 03:42:00,-15.0,-20.0,-100.00,SSW,210,1.0,1.0,76,0.00,,,-99.99,,2013-01-03 08:42:00,
2013-01-03 03:53:00,-15.0,-21.0,-100.00,SW,215,1.0,2.0,75,0.00,,,-99.99,,2013-01-03 08:53:00,
2013-01-03 04:03:00,-15.0,-21.0,-100.00,West,270,0.0,1.0,74,0.00,,,-99.99,,2013-01-03 09:03:00,
2013-01-03 04:12:00,-15.0,-21.0,-100.00,West,270,1.0,1.0,75,0.00,,,-99.99,,2013-01-03 09:12:00,
2013-01-03 04:22:00,-15.0,-21.0,-100.00,West,270,1.0,1.0,75,0.00,,,-99.99,,2013-01-03 09:22:00,
2013-01-03 04:33:00,-15.0,-21.0,-100.00,West,270,1.0,1.0,75,0.00,,,-99.99,,2013-01-03 09:33:00,
2013-01-03 04:43:00,-15.0,-21.0,-100.00,NNE,30,0.0,2.0,75,0.00,,,-99.99,,2013-01-03 09:43:00,
2013-01-03 04:52:00,-15.0,-21.0,-100.00,NW,325,0.0,1.0,75,0.00,,,-99.99,,2013-01-03 09:52:00,
2013-01-03 05:02:00,-16.0,-21.0,-100.00,West,270,1.0,1.0,75,0.00,,,-99.99,,2013-01-03 10:02:00,
2013-01-03 05:12:00,-16.0,-21.0,-100.00,West,260,1.0,1.0,74,0.00,,,-99.99,,2013-01-03 10:12:00,
2013-01-03 05:22:00,-16.0,-21.0,-100.00,West,265,1.0,1.0,74,0.00,,,-99.99,,2013-01-03 10:22:00,
2013-01-03 05:33:00,-16.0,-22.0,-100.00,West,275,0.0,1.0,74,0.00,,,-99.99,,2013-01-03 10:33:00,
2013-01-03 05:42:00,-16.0,-22.0,-100.00,WSW,240,1.0,1.0,74,0.00,,,-99.99,,2013-01-03 10:42:00,
2013-01-03 05:52:00,-16.0,-22.0,-100.00,SSW,210,1.0,1.0,74,0.00,,,-99.99,,2013-01-03 10:52:00,
2013-01-03 06:02:00,-16.0,-22.0,-100.00,West,280,1.0,1.0,74,0.00,,,-99.99,,2013-01-03 11:02:00,
2013-01-03 06:12:00,-16.0,-21.0,-100.00,East,80,1.0,2.0,75,0.00,,,-99.99,,2013-01-03 11:12:00,
2013-01-03 06:23:00,-16.0,-21.0,-100.00,NW,310,1.0,2.0,76,0.00,,,-99.99,,2013-01-03 11:23:00,
2013-01-03 06:33:00,-16.0,-22.0,-100.00,WNW,300,1.0,2.0,75,0.00,,,-99.99,,2013-01-03 11:33:00,
2013-01-03 06:43:00,-16.0,-22.0,-100.00,WNW,300,1.0,2.0,75,0.00,,,-99.99,,2013-01-03 11:43:00,
2013-01-03 06:53:00,-17.0,-22.0,-100.00,ENE,60,0.0,1.0,74,0.00,,,-99.99,,2013-01-03 11:53:00,
2013-01-03 07:03:00,-16.0,-22.0,-100.00,East,90,0.0,1.0,75,0.00,,,-99.99,,2013-01-03 12:03:00,
2013-01-03 07:12:00,-17.0,-23.0,-100.00,SW,230,1.0,2.0,74,0.00,,,-99.99,,2013-01-03 12:12:00,
2013-01-03 07:22:00,-17.0,-23.0,-100.00,WSW,250,1.0,1.0,74,0.00,,,-99.99,,2013-01-03 12:22:00,
2013-01-03 07:33:00,-17.0,-23.0,-100.00,SW,225,1.0,1.0,74,0.00,,,-99.99,,2013-01-03 12:33:00,
2013-01-03 07:42:00,-17.0,-23.0,-100.00,SW,225,1.0,1.0,74,0.00,,,-99.99,,2013-01-03 12:42:00,
2013-01-03 07:52:00,-17.0,-23.0,-100.00,WSW,255,0.0,1.0,74,0.00,,,-99.99,,2013-01-03 12:52:00,
2013-01-03 08:02:00,-18.0,-23.0,-100.00,WSW,245,1.0,1.0,74,0.00,,,-99.99,,2013-01-03 13:02:00,
2013-01-03 08:13:00,-17.0,-23.0,-100.00,NNE,30,0.0,1.0,74,0.00,,,-99.99,,2013-01-03 13:13:00,
2013-01-03 08:22:00,-16.0,-22.0,-100.00,West,265,0.0,1.0,73,0.00,,,-99.99,,2013-01-03 13:22:00,
2013-01-03 08:33:00,-14.0,-21.0,-100.00,North,350,1.0,3.0,73,0.00,,,-99.99,,2013-01-03 13:33:00,
2013-01-03 08:42:00,-14.0,-20.0,-100.00,NE,35,1.0,2.0,73,0.00,,,-99.99,,2013-01-03 13:42:00,
2013-01-03 08:52:00,-15.0,-20.0,-100.00,NNW,340,1.0,2.0,75,0.00,,,-99.99,,2013-01-03 13:52:00,
2013-01-03 09:03:00,-14.0,-20.0,-100.00,NNW,345,1.0,2.0,75,0.00,,,-99.99,,2013-01-03 14:03:00,
2013-01-03 09:12:00,-14.0,-19.0,-100.00,ESE,105,1.0,2.0,75,0.00,,,-99.99,,2013-01-03 14:12:00,
2013-01-03 09:23:00,-13.0,-19.0,-100.00,NNW,345,1.0,2.0,74,0.00,,,-99.99,,2013-01-03 14:23:00,
2013-01-03 09:33:00,-12.0,-18.0,-100.00,NNW,335,1.0,3.0,73,0.00,,,-99.99,,2013-01-03 14:33:00,
2013-01-03 09:42:00,-12.0,-18.0,-100.00,North,0,1.0,2.0,71,0.00,,,-99.99,,2013-01-03 14:42:00,
2013-01-03 09:53:00,-10.0,-17.0,-100.00,NNE,25,1.0,2.0,73,0.00,,,-99.99,,2013-01-03 14:53:00,
2013-01-03 10:03:00,-8.0,-15.0,-100.00,NNW,340,0.0,1.0,69,0.00,,,-99.99,,2013-01-03 15:03:00,
2013-01-03 10:12:00,-7.0,-16.0,-100.00,WNW,300,1.0,1.0,65,0.00,,,-99.99,,2013-01-03 15:12:00,
2013-01-03 10:23:00,-7.0,-15.0,-100.00,SE,135,1.0,2.0,66,0.00,,,-99.99,,2013-01-03 15:23:00,
2013-01-03 10:33:00,-3.0,-13.0,-100.00,SE,145,0.0,1.0,62,0.00,,,-99.99,,2013-01-03 15:33:00,
2013-01-03 10:43:00,-3.0,-13.0,-100.00,WNW,295,0.0,1.0,59,0.00,,,-99.99,,2013-01-03 15:43:00,
2013-01-03 10:53:00,-3.0,-13.0,-100.00,WNW,295,0.0,1.0,59,0.00,,,-99.99,,2013-01-03 15:53:00,
2013-01-03 11:03:00,-3.0,-13.0,-100.00,WNW,295,0.0,1.0,59,0.00,,,-99.99,,2013-01-03 16:03:00,
2013-01-03 11:12:00,0.0,-13.0,-100.00,West,275,1.0,1.0,55,0.00,,,-99.99,,2013-01-03 16:12:00,
2013-01-03 11:22:00,-1.0,-13.0,-100.00,NW,320,0.0,2.0,57,0.00,,,-99.99,,2013-01-03 16:22:00,
2013-01-03 11:33:00,1.0,-12.0,-100.00,East,85,0.0,1.0,53,0.00,,,-99.99,,2013-01-03 16:33:00,
2013-01-03 11:43:00,-1.0,-12.0,-100.00,ESE,105,1.0,3.0,57,0.00,,,-99.99,,2013-01-03 16:43:00,
2013-01-03 11:53:00,1.0,-11.0,-100.00,ESE,105,0.0,2.0,55,0.00,,,-99.99,,2013-01-03 16:53:00,
2013-01-03 12:03:00,3.0,-11.0,-100.00,SE,145,1.0,1.0,51,0.00,,,-99.99,,2013-01-03 17:03:00,
2013-01-03 12:13:00,2.0,-11.0,-100.00,East,90,1.0,2.0,54,0.00,,,-99.99,,2013-01-03 17:13:00,
2013-01-03 12:23:00,3.0,-11.0,-100.00,SE,125,1.0,2.0,51,0.00,,,-99.99,,2013-01-03 17:23:00,
2013-01-03 12:33:00,2.0,-10.0,-100.00,ESE,120,2.0,4.0,54,0.00,,,-99.99,,2013-01-03 17:33:00,
2013-01-03 12:43:00,3.0,-10.0,-100.00,ESE,115,2.0,4.0,53,0.00,,,-99.99,,2013-01-03 17:43:00,
2013-01-03 12:53:00,3.0,-10.0,-100.00,SE,130,1.0,4.0,52,0.00,,,-99.99,,2013-01-03 17:53:00,
2013-01-03 13:03:00,4.0,-10.0,-100.00,NNE,15,1.0,2.0,51,0.00,,,-99.99,,2013-01-03 18:03:00,
2013-01-03 13:13:00,5.0,-10.0,-100.00,SSE,165,0.0,1.0,51,0.00,,,-99.99,,2013-01-03 18:13:00,
2013-01-03 13:22:00,5.0,-9.0,-100.00,SE,125,1.0,4.0,52,0.00,,,-99.99,,2013-01-03 18:22:00,
2013-01-03 13:33:00,5.0,-9.0,-100.00,ESE,120,2.0,4.0,52,0.00,,,-99.99,,2013-01-03 18:33:00,
2013-01-03 13:42:00,6.0,-9.0,-100.00,East,100,1.0,3.0,51,0.00,,,-99.99,,2013-01-03 18:42:00,
2013-01-03 13:53:00,6.0,-8.0,-100.00,ESE,105,2.0,3.0,50,0.00,,,-99.99,,2013-01-03 18:53:00,
2013-01-03 14:03:00,6.0,-8.0,-100.00,SE,135,1.0,3.0,50,0.00,,,-99.99,,2013-01-03 19:03:00,
2013-01-03 14:12:00,7.0,-8.0,-100.00,ESE,120,1.0,2.0,49,0.00,,,-99.99,,2013-01-03 19:12:00,
2013-01-03 14:56:00,7.0,-8.0,-100.00,SE,145,2.0,3.0,48,0.00,,,-99.99,,2013-01-03 19:56:00,
2013-01-03 15:03:00,8.0,-8.0,-100.00,SSE,160,2.0,2.0,47,0.00,,,-99.99,,2013-01-03 20:03:00,
2013-01-03 15:12:00,8.0,-9.0,-100.00,SSE,150,1.0,2.0,45,0.00,,,-99.99,,2013-01-03 20:12:00,
2013-01-03 15:22:00,8.0,-9.0,-100.00,South,185,1.0,1.0,44,0.00,,,-99.99,,2013-01-03 20:22:00,
2013-01-03 15:33:00,8.0,-8.0,-100.00,SSE,155,1.0,2.0,46,0.00,,,-99.99,,2013-01-03 20:33:00,
2013-01-03 15:42:00,8.0,-8.0,-100.00,SSE,155,1.0,2.0,46,0.00,,,-99.99,,2013-01-03 20:42:00,
2013-01-03 15:53:00,9.0,-6.0,-100.00,SE,145,0.0,2.0,50,0.00,,,-99.99,,2013-01-03 20:53:00,
2013-01-03 16:02:00,9.0,-5.0,-100.00,WNW,300,1.0,2.0,51,0.00,,,-99.99,,2013-01-03 21:02:00,
2013-01-03 16:12:00,9.0,-5.0,-100.00,North,350,0.0,1.0,51,0.00,,,-99.99,,2013-01-03 21:12:00,
2013-01-03 16:23:00,9.0,-5.0,-100.00,NNW,330,0.0,1.0,51,0.00,,,-99.99,,2013-01-03 21:23:00,
2013-01-03 16:36:00,9.0,-6.0,-100.00,ESE,115,0.0,1.0,50,0.00,,,-99.99,,2013-01-03 21:36:00,
2013-01-03 16:48:00,9.0,-3.0,-100.00,WNW,295,0.0,1.0,57,0.00,,,-99.99,,2013-01-03 21:48:00,
2013-01-03 17:03:00,7.0,-3.0,-100.00,West,260,0.0,2.0,60,0.00,,,-99.99,,2013-01-03 22:03:00,
2013-01-03 17:12:00,6.0,-4.0,-100.00,WSW,250,0.0,1.0,63,0.00,,,-99.99,,2013-01-03 22:12:00,
2013-01-03 17:22:00,5.0,-3.0,-100.00,SW,225,1.0,1.0,67,0.00,,,-99.99,,2013-01-03 22:22:00,
2013-01-03 17:33:00,5.0,-3.0,-100.00,WSW,255,1.0,1.0,68,0.00,,,-99.99,,2013-01-03 22:33:00,
2013-01-03 17:42:00,4.0,-4.0,-100.00,WSW,255,1.0,1.0,70,0.00,,,-99.99,,2013-01-03 22:42:00,
2013-01-03 17:52:00,3.0,-4.0,-100.00,WSW,250,0.0,2.0,71,0.00,,,-99.99,,2013-01-03 22:52:00,
2013-01-03 18:03:00,3.0,-4.0,-100.00,SW,230,1.0,1.0,72,0.00,,,-99.99,,2013-01-03 23:03:00,
2013-01-03 18:12:00,2.0,-5.0,-100.00,SW,230,1.0,1.0,72,0.00,,,-99.99,,2013-01-03 23:12:00,
2013-01-03 18:22:00,2.0,-5.0,-100.00,SE,135,0.0,1.0,72,0.00,,,-99.99,,2013-01-03 23:22:00,
2013-01-03 18:33:00,1.0,-5.0,-100.00,SW,225,1.0,1.0,73,0.00,,,-99.99,,2013-01-03 23:33:00,
2013-01-03 18:43:00,1.0,-6.0,-100.00,WSW,250,1.0,1.0,74,0.00,,,-99.99,,2013-01-03 23:43:00,
2013-01-03 18:52:00,0.0,-6.0,-100.00,WSW,245,0.0,1.0,75,0.00,,,-99.99,,2013-01-03 23:52:00,
2013-01-03 19:03:00,0.0,-6.0,-100.00,SW,220,0.0,1.0,76,0.00,,,-99.99,,2013-01-04 00:03:00,
2013-01-03 19:12:00,0.0,-6.0,-100.00,SW,225,1.0,1.0,75,0.00,,,-99.99,,2013-01-04 00:12:00,
2013-01-03 19:22:00,0.0,-6.0,-100.00,SW,235,1.0,1.0,76,0.00,,,-99.99,,2013-01-04 00:22:00,
2013-01-03 19:32:00,0.0,-6.0,-100.00,West,260,0.0,1.0,76,0.00,,,-99.99,,2013-01-04 00:32:00,
2013-01-03 19:42:00,0.0,-6.0,-100.00,SSW,195,0.0,1.0,76,0.00,,,-99.99,,2013-01-04 00:42:00,
2013-01-03 19:52:00,0.0,-6.0,-100.00,SW,230,0.0,1.0,76,0.00,,,-99.99,,2013-01-04 00:52:00,
2013-01-03 20:02:00,0.0,-6.0,-100.00,WNW,300,0.0,1.0,76,0.00,,,-99.99,,2013-01-04 01:02:00,
2013-01-03 20:12:00,0.0,-6.0,-100.00,SW,230,1.0,1.0,77,0.00,,,-99.99,,2013-01-04 01:12:00,
2013-01-03 20:22:00,-1.0,-6.0,-100.00,SW,225,1.0,2.0,77,0.00,,,-99.99,,2013-01-04 01:22:00,
2013-01-03 20:33:00,-1.0,-6.0,-100.00,SE,125,0.0,1.0,77,0.00,,,-99.99,,2013-01-04 01:33:00,
2013-01-03 20:42:00,-1.0,-6.0,-100.00,SW,235,1.0,1.0,78,0.00,,,-99.99,,2013-01-04 01:42:00,
2013-01-03 20:52:00,-1.0,-6.0,-100.00,SW,235,1.0,1.0,79,0.00,,,-99.99,,2013-01-04 01:52:00,
2013-01-03 21:02:00,-2.0,-7.0,-100.00,South,170,0.0,1.0,79,0.00,,,-99.99,,2013-01-04 02:02:00,
2013-01-03 21:12:00,-2.0,-7.0,-100.00,West,270,0.0,1.0,79,0.00,,,-99.99,,2013-01-04 02:12:00,
2013-01-03 21:22:00,-3.0,-7.0,-100.00,SW,235,1.0,1.0,79,0.00,,,-99.99,,2013-01-04 02:22:00,
2013-01-03 21:33:00,-3.0,-8.0,-100.00,West,270,1.0,1.0,80,0.00,,,-99.99,,2013-01-04 02:33:00,
2013-01-03 21:42:00,-3.0,-8.0,-100.00,SSW,205,1.0,1.0,80,0.00,,,-99.99,,2013-01-04 02:42:00,
2013-01-03 21:52:00,-2.0,-7.0,-100.00,WSW,250,0.0,1.0,80,0.00,,,-99.99,,2013-01-04 02:52:00,
2013-01-03 22:02:00,-1.0,-6.0,-100.00,South,170,0.0,1.0,80,0.00,,,-99.99,,2013-01-04 03:02:00,
2013-01-03 22:12:00,-1.0,-5.0,-100.00,WSW,245,0.0,1.0,79,0.00,,,-99.99,,2013-01-04 03:12:00,
2013-01-03 22:22:00,0.0,-5.0,-100.00,WSW,245,0.0,1.0,79,0.00,,,-99.99,,2013-01-04 03:22:00,
2013-01-03 22:33:00,0.0,-5.0,-100.00,West,260,0.0,1.0,79,0.00,,,-99.99,,2013-01-04 03:33:00,
2013-01-03 22:42:00,0.0,-5.0,-100.00,WSW,245,0.0,1.0,78,0.00,,,-99.99,,2013-01-04 03:42:00,
2013-01-03 22:52:00,1.0,-4.0,-100.00,NE,55,0.0,1.0,78,0.00,,,-99.99,,2013-01-04 03:52:00,
2013-01-03 23:02:00,1.0,-4.0,-100.00,West,270,0.0,1.0,78,0.00,,,-99.99,,2013-01-04 04:02:00,
2013-01-03 23:12:00,1.0,-4.0,-100.00,North,0,0.0,1.0,78,0.00,,,-99.99,,2013-01-04 04:12:00,
2013-01-03 23:22:00,2.0,-4.0,-100.00,SSE,155,1.0,1.0,78,0.00,,,-99.99,,2013-01-04 04:22:00,
2013-01-03 23:32:00,1.0,-4.0,-100.00,SW,225,1.0,1.0,77,0.00,,,-99.99,,2013-01-04 04:32:00,
2013-01-03 23:42:00,1.0,-5.0,-100.00,SSW,210,0.0,1.0,77,0.00,,,-99.99,,2013-01-04 04:42:00,
2013-01-03 23:52:00,1.0,-4.0,-100.00,SW,235,1.0,1.0,78,0.00,,,-99.99,,2013-01-04 04:52:00,